Escalante, Utah
Current Conditions -  °F | °C
As of 5:53 PM on Friday 24 Oct 2014 (Local Time) from KBCE Reporting Station
Clear Clear  
Wind Chill: 64°   Ceiling: Unl
Heat Index: 64°   Visibility: 10mi
Dew Point: 27°   Wind: 13mph
Humidity: 25%   Direction: 130°SE
Pressure: 30.35"   Gusts: NA
Location:  37.77°N, 111.6°W
Report Text: KBCE 242353Z AUTO 13011KT 10SM CLR 18/M03 A3035 RMK AO2 SLP204 T01781028 10200 20161 56004 TSNO
Loading
Personal Weather Stations






























Interactive Weather Map
Tropical Storm Tracking
New forecast layout! Learn more

10-Day Weather Forecast

Advertisements
Track Severe Weather on mobile